Orkoien, Spain
Current Conditions -  °F | °C
As of 12:00 AM on Wednesday 22 Oct 2014 (Local Time) from LEPP Reporting Station
Scattered Clouds Scattered Clouds  
Wind Chill: 61°   Ceiling: Unl
Heat Index: 61°   Visibility: 6mi
Dew Point: 52°   Wind: 16mph
Humidity: 72%   Direction: 340°NNW
Pressure: 30.39"   Gusts: NA
Location:  42.82°N, 1.7°W
Report Text: LEPP 212200Z 34014KT 9999 FEW025 SCT050 16/11 Q1029
Loading
Personal Weather Stations






























Interactive Weather Map
Tropical Storm Tracking
New forecast layout! Learn more

10-Day Weather Forecast

Advertisements
Track Severe Weather on mobile